createdAt,value
2022-12-05T00:00:09.792Z,4.40
2022-12-05T00:02:38.400Z,4.40
2022-12-05T00:05:07.305Z,4.41
2022-12-05T00:07:35.770Z,4.42
2022-12-05T00:10:04.149Z,4.40
2022-12-05T00:12:32.605Z,4.39
2022-12-05T00:15:04.051Z,4.38
2022-12-05T00:17:34.824Z,4.37
2022-12-05T00:20:03.842Z,4.37
2022-12-05T00:22:31.919Z,4.38
2022-12-05T00:24:59.991Z,4.39
2022-12-05T00:27:29.454Z,4.36
2022-12-05T00:29:57.462Z,4.36
2022-12-05T00:32:29.756Z,4.36
2022-12-05T00:34:58.151Z,4.37
2022-12-05T00:37:28.768Z,4.35
2022-12-05T00:39:57.252Z,4.36
2022-12-05T00:42:27.418Z,4.36
2022-12-05T00:44:55.688Z,4.39
2022-12-05T00:47:27.560Z,4.38
2022-12-05T00:49:56.667Z,4.40
2022-12-05T00:52:25.402Z,4.39
2022-12-05T00:54:53.446Z,4.38
2022-12-05T00:57:22.300Z,4.40
2022-12-05T00:59:54.621Z,4.39
2022-12-05T01:02:23.445Z,4.37
2022-12-05T01:04:52.628Z,4.33
2022-12-05T01:07:23.604Z,4.34
2022-12-05T01:09:51.518Z,4.34
2022-12-05T01:12:20.522Z,4.32
2022-12-05T01:14:48.708Z,4.31
2022-12-05T01:17:19.193Z,4.30
2022-12-05T01:19:49.754Z,4.29
2022-12-05T01:22:19.359Z,4.30
2022-12-05T01:24:47.729Z,4.28
2022-12-05T01:27:17.720Z,4.30
2022-12-05T01:29:45.754Z,4.32
2022-12-05T01:32:14.174Z,4.34
2022-12-05T01:34:42.236Z,4.34
2022-12-05T01:37:10.243Z,4.35
2022-12-05T01:39:39.933Z,4.36
2022-12-05T01:42:12.925Z,4.33
2022-12-05T01:45:06.099Z,4.34
2022-12-05T01:47:38.334Z,4.35
2022-12-05T01:50:11.272Z,4.38
2022-12-05T01:52:41.313Z,4.38
2022-12-05T01:55:15.874Z,4.37
2022-12-05T01:57:45.175Z,4.40
2022-12-05T02:00:18.297Z,4.38
2022-12-05T02:02:52.060Z,4.39
2022-12-05T02:05:27.635Z,4.37
2022-12-05T02:07:56.563Z,4.37
2022-12-05T02:10:32.805Z,4.38
2022-12-05T02:13:17.924Z,4.39
2022-12-05T02:15:57.116Z,4.40
2022-12-05T02:18:40.402Z,4.41
2022-12-05T02:21:36.859Z,4.39
2022-12-05T02:24:27.317Z,4.37
2022-12-05T02:30:16.610Z,4.34
2022-12-05T02:32:54.099Z,4.33
2022-12-05T02:35:51.497Z,4.35
2022-12-05T02:38:30.678Z,4.34
2022-12-05T02:41:09.395Z,4.34
2022-12-05T02:43:46.335Z,4.35
2022-12-05T02:46:24.339Z,4.35
2022-12-05T02:48:58.566Z,4.36
2022-12-05T02:51:31.894Z,4.34
2022-12-05T02:54:05.609Z,4.33
2022-12-05T02:56:36.602Z,4.32
2022-12-05T02:59:05.664Z,4.30
2022-12-05T03:01:35.339Z,4.31
2022-12-05T03:04:09.393Z,4.28
2022-12-05T03:06:44.038Z,4.31
2022-12-05T03:09:17.794Z,4.32
2022-12-05T03:11:49.383Z,4.33
2022-12-05T03:14:26.484Z,4.33
2022-12-05T03:17:01.476Z,4.33
2022-12-05T03:19:34.413Z,4.29
2022-12-05T03:22:10.395Z,4.32
2022-12-05T03:24:42.504Z,4.32
2022-12-05T03:27:18.778Z,4.36
2022-12-05T03:29:53.430Z,4.34
2022-12-05T03:32:32.464Z,4.33
2022-12-05T03:35:08.584Z,4.30
2022-12-05T03:37:45.387Z,4.28
2022-12-05T03:40:24.853Z,4.29
2022-12-05T03:42:59.043Z,4.29
2022-12-05T03:45:37.931Z,4.31
2022-12-05T03:48:16.353Z,4.33
2022-12-05T03:50:48.811Z,4.33
2022-12-05T03:53:23.838Z,4.36
2022-12-05T03:56:00.458Z,4.34
2022-12-05T03:58:33.243Z,4.33
2022-12-05T04:01:08.813Z,4.35
2022-12-05T04:03:42.862Z,4.36
2022-12-05T04:06:18.854Z,4.38
2022-12-05T04:08:55.115Z,4.39
2022-12-05T04:11:27.781Z,4.40
2022-12-05T04:14:01.763Z,4.37
2022-12-05T04:16:52.704Z,4.39
2022-12-05T04:19:49.972Z,4.40
2022-12-05T04:22:20.962Z,4.41
2022-12-05T04:25:08.772Z,4.39
2022-12-05T04:27:42.924Z,4.28
2022-12-05T04:30:17.758Z,4.33
2022-12-05T04:32:49.752Z,4.28
2022-12-05T04:35:25.855Z,4.32
2022-12-05T04:38:02.717Z,4.33
2022-12-05T04:40:36.142Z,4.28
2022-12-05T04:43:07.583Z,4.14
2022-12-05T04:45:40.848Z,4.17
2022-12-05T04:48:13.647Z,4.14
2022-12-05T04:50:46.745Z,4.06
2022-12-05T04:53:17.093Z,4.03
2022-12-05T04:55:51.199Z,4.10
2022-12-05T04:58:22.581Z,4.12
2022-12-05T05:01:00.057Z,4.10
2022-12-05T05:03:32.597Z,4.15
2022-12-05T05:06:02.699Z,4.21
2022-12-05T05:08:31.132Z,4.22
2022-12-05T05:11:07.538Z,4.18
2022-12-05T05:13:36.073Z,4.14
2022-12-05T05:16:04.396Z,4.05
2022-12-05T05:18:32.707Z,3.97
2022-12-05T05:21:02.011Z,3.98
2022-12-05T05:23:30.109Z,4.03
2022-12-05T05:25:58.798Z,4.07
2022-12-05T05:28:26.972Z,4.11
2022-12-05T05:30:55.139Z,4.13
2022-12-05T05:33:24.485Z,4.06
2022-12-05T05:35:53.445Z,4.14
2022-12-05T05:38:23.186Z,4.05
2022-12-05T05:40:51.448Z,4.08
2022-12-05T05:43:19.397Z,4.15
2022-12-05T05:45:53.088Z,4.11
2022-12-05T05:48:24.676Z,4.14
2022-12-05T05:50:53.224Z,4.20
2022-12-05T05:53:25.244Z,4.18
2022-12-05T05:55:53.472Z,4.15
2022-12-05T05:58:21.924Z,4.18
2022-12-05T06:00:50.377Z,4.21
2022-12-05T06:03:21.475Z,4.25
2022-12-05T06:05:57.909Z,4.25
2022-12-05T06:08:30.277Z,4.28
2022-12-05T06:10:59.815Z,4.29
2022-12-05T06:13:27.916Z,4.32
2022-12-05T06:15:56.942Z,4.33
2022-12-05T06:18:25.356Z,4.35
2022-12-05T06:20:54.398Z,4.33
2022-12-05T06:23:23.256Z,4.34
2022-12-05T06:25:56.869Z,4.35
2022-12-05T06:29:25.102Z,4.37
2022-12-05T06:31:54.037Z,4.40
2022-12-05T06:34:22.134Z,4.42
2022-12-05T06:36:50.175Z,4.43
2022-12-05T06:39:21.464Z,4.42
2022-12-05T06:41:51.297Z,4.42
2022-12-05T06:44:21.925Z,4.42
2022-12-05T06:46:50.101Z,4.34
2022-12-05T06:49:17.967Z,4.34
2022-12-05T06:51:46.947Z,4.39
2022-12-05T06:54:17.515Z,4.43
2022-12-05T06:56:47.989Z,4.43
2022-12-05T06:59:21.336Z,4.46
2022-12-05T07:01:51.389Z,4.45
2022-12-05T07:04:24.198Z,4.47
2022-12-05T07:06:54.017Z,4.40
2022-12-05T07:09:46.859Z,4.45
2022-12-05T07:12:16.879Z,4.46
2022-12-05T07:14:49.123Z,4.49
2022-12-05T07:17:19.934Z,4.44
2022-12-05T07:19:49.503Z,4.46
2022-12-05T07:22:17.574Z,4.52
2022-12-05T07:24:46.704Z,4.55
2022-12-05T07:27:17.694Z,4.58
2022-12-05T07:29:50.791Z,4.59
2022-12-05T07:32:19.420Z,4.58
2022-12-05T07:34:54.945Z,4.63
2022-12-05T07:37:23.849Z,4.66
2022-12-05T07:39:53.136Z,4.68
2022-12-05T07:42:21.618Z,4.69
2022-12-05T07:44:51.324Z,4.69
2022-12-05T07:47:20.888Z,4.68
2022-12-05T07:49:52.783Z,4.70
2022-12-05T07:52:20.725Z,4.69
2022-12-05T07:54:49.205Z,4.70
2022-12-05T07:57:17.988Z,4.69
2022-12-05T07:59:46.357Z,4.68
2022-12-05T08:02:16.342Z,4.70
2022-12-05T08:04:46.840Z,4.69
2022-12-05T08:07:14.718Z,4.65
2022-12-05T08:09:42.996Z,4.70
2022-12-05T08:12:10.831Z,4.71
2022-12-05T08:14:39.249Z,4.69
2022-12-05T08:17:08.528Z,4.76
2022-12-05T08:19:39.452Z,4.77
2022-12-05T08:22:07.937Z,4.79
2022-12-05T08:24:36.765Z,4.80
2022-12-05T08:27:06.601Z,4.78
2022-12-05T08:29:35.518Z,4.77
2022-12-05T08:32:03.931Z,4.78
2022-12-05T08:34:32.184Z,4.82
2022-12-05T08:37:03.937Z,4.74
2022-12-05T08:39:37.968Z,4.67
2022-12-05T08:42:07.084Z,4.73
2022-12-05T08:44:36.351Z,4.83
2022-12-05T08:47:04.873Z,4.89
2022-12-05T08:49:33.339Z,4.90
2022-12-05T08:52:06.581Z,4.91
2022-12-05T08:54:37.629Z,4.92
2022-12-05T08:57:07.083Z,4.95
2022-12-05T08:59:35.455Z,4.97
2022-12-05T09:02:08.070Z,4.90
2022-12-05T09:04:36.181Z,4.89
2022-12-05T09:07:10.602Z,4.92
2022-12-05T09:09:39.444Z,4.87
2022-12-05T09:12:08.145Z,4.81
2022-12-05T09:14:36.479Z,4.86
2022-12-05T09:17:04.385Z,4.89
2022-12-05T09:19:32.929Z,4.96
2022-12-05T09:22:01.410Z,4.97
2022-12-05T09:24:35.319Z,4.92
2022-12-05T09:27:03.881Z,4.96
2022-12-05T09:29:32.594Z,4.98
2022-12-05T09:32:00.695Z,4.92
2022-12-05T09:34:29.399Z,4.97
2022-12-05T09:37:10.541Z,5.02
2022-12-05T09:39:52.334Z,4.91
2022-12-05T09:42:39.989Z,4.86
2022-12-05T09:45:26.658Z,4.94
2022-12-05T09:48:00.781Z,4.98
2022-12-05T09:50:33.155Z,4.96
2022-12-05T09:53:24.592Z,4.90
2022-12-05T09:56:03.006Z,4.94
2022-12-05T09:58:41.919Z,4.94
2022-12-05T10:01:26.260Z,5.00
2022-12-05T10:04:08.253Z,5.02
2022-12-05T10:06:41.581Z,5.01
2022-12-05T10:09:25.877Z,5.05
2022-12-05T10:12:02.930Z,5.14
2022-12-05T10:14:41.251Z,5.10
2022-12-05T10:17:20.713Z,5.09
2022-12-05T10:19:52.606Z,5.13
2022-12-05T10:22:26.829Z,5.20
2022-12-05T10:25:02.150Z,5.12
2022-12-05T10:27:40.303Z,5.16
2022-12-05T10:30:16.132Z,5.26
2022-12-05T10:32:54.136Z,5.33
2022-12-05T10:35:25.069Z,5.37
2022-12-05T10:37:56.689Z,5.44
2022-12-05T10:40:27.774Z,5.51
2022-12-05T10:42:57.662Z,5.58
2022-12-05T10:45:26.021Z,5.62
2022-12-05T10:47:58.204Z,5.63
2022-12-05T10:50:32.260Z,5.67
2022-12-05T10:53:03.866Z,5.70
2022-12-05T10:55:37.702Z,5.76
2022-12-05T10:58:22.779Z,5.80
2022-12-05T11:00:55.777Z,5.81
2022-12-05T11:03:29.430Z,5.83
2022-12-05T11:05:59.830Z,5.79
2022-12-05T11:09:02.608Z,5.84
2022-12-05T11:11:24.773Z,5.86
2022-12-05T11:13:58.285Z,5.92
2022-12-05T11:16:31.859Z,6.00
2022-12-05T11:19:26.470Z,5.94
2022-12-05T11:21:54.928Z,5.98
2022-12-05T11:24:27.106Z,5.96
2022-12-05T11:26:56.132Z,5.80
2022-12-05T11:29:34.718Z,5.71
2022-12-05T11:32:17.566Z,5.71
2022-12-05T11:34:51.837Z,5.67
2022-12-05T11:37:27.712Z,5.60
2022-12-05T11:39:55.935Z,5.60
2022-12-05T11:42:45.690Z,5.61
2022-12-05T11:45:42.359Z,5.58
2022-12-05T11:48:41.028Z,5.65
2022-12-05T11:51:28.497Z,5.62
2022-12-05T11:54:41.641Z,5.50
2022-12-05T11:57:23.483Z,5.53
2022-12-05T12:00:16.544Z,5.63
2022-12-05T12:03:06.364Z,5.73
2022-12-05T12:05:43.368Z,5.71
2022-12-05T12:08:23.360Z,5.68
2022-12-05T12:11:04.474Z,5.74
2022-12-05T12:13:57.618Z,5.75
2022-12-05T12:16:40.757Z,5.76
2022-12-05T12:19:25.329Z,5.74
2022-12-05T12:22:07.482Z,5.80
2022-12-05T12:24:55.525Z,5.59
2022-12-05T12:27:35.223Z,5.54
2022-12-05T12:30:12.299Z,5.49
2022-12-05T12:32:49.628Z,5.47
2022-12-05T12:35:31.048Z,5.56
2022-12-05T12:38:18.809Z,5.55
2022-12-05T12:40:51.743Z,5.52
2022-12-05T12:43:53.721Z,5.48
2022-12-05T12:46:39.493Z,5.44
2022-12-05T12:49:36.921Z,5.46
2022-12-05T12:52:14.619Z,5.51
2022-12-05T12:55:15.604Z,5.51
2022-12-05T12:58:03.992Z,5.52
2022-12-05T13:00:47.478Z,5.60
2022-12-05T13:03:22.639Z,5.64
2022-12-05T13:05:55.387Z,5.55
2022-12-05T13:08:36.827Z,5.57
2022-12-05T13:11:10.745Z,5.55
2022-12-05T13:13:44.707Z,5.59
2022-12-05T13:16:23.750Z,5.65
2022-12-05T13:18:51.970Z,5.64
2022-12-05T13:21:21.358Z,5.59
2022-12-05T13:23:55.009Z,5.63
2022-12-05T13:26:24.424Z,5.65
2022-12-05T13:28:56.599Z,5.58
2022-12-05T13:31:37.111Z,5.63
2022-12-05T13:34:05.563Z,5.64
2022-12-05T13:36:59.786Z,5.69
2022-12-05T13:39:51.064Z,5.77
2022-12-05T13:42:26.288Z,5.77
2022-12-05T13:44:58.720Z,5.77
2022-12-05T13:47:33.184Z,5.70
2022-12-05T13:50:15.013Z,5.77
2022-12-05T13:52:49.935Z,5.72
2022-12-05T13:55:35.372Z,5.69
2022-12-05T13:58:25.220Z,5.73
2022-12-05T14:01:50.341Z,5.75
2022-12-05T14:04:50.609Z,5.78
2022-12-05T14:07:38.855Z,5.82
2022-12-05T14:10:08.556Z,5.82
2022-12-05T14:12:55.864Z,5.84
2022-12-05T14:15:45.276Z,5.82
2022-12-05T14:18:19.660Z,5.71
2022-12-05T14:21:09.019Z,5.70
2022-12-05T14:23:47.377Z,5.70
2022-12-05T14:26:36.072Z,5.71
2022-12-05T14:29:25.667Z,5.76
2022-12-05T14:32:06.921Z,5.80
2022-12-05T14:34:37.734Z,5.84
2022-12-05T14:37:21.609Z,5.88
2022-12-05T14:39:52.896Z,5.84
2022-12-05T14:42:30.591Z,5.80
2022-12-05T14:45:02.022Z,5.83
2022-12-05T14:47:33.537Z,5.85
2022-12-05T14:50:35.767Z,5.88
2022-12-05T14:53:26.549Z,5.88
2022-12-05T14:56:07.832Z,5.90
2022-12-05T14:58:43.962Z,5.92
2022-12-05T15:01:17.853Z,5.94
2022-12-05T15:04:04.246Z,5.94
2022-12-05T15:06:37.158Z,5.97
2022-12-05T15:09:38.369Z,5.95
2022-12-05T15:12:14.491Z,5.94
2022-12-05T15:14:48.215Z,5.93
2022-12-05T15:17:22.502Z,5.90
2022-12-05T15:19:57.423Z,5.92
2022-12-05T15:22:29.420Z,5.93
2022-12-05T15:25:14.294Z,5.94
2022-12-05T15:27:42.387Z,5.93
2022-12-05T15:30:17.890Z,5.94
2022-12-05T15:32:49.242Z,5.93
2022-12-05T15:35:24.459Z,5.94
2022-12-05T15:37:57.055Z,5.93
2022-12-05T15:40:37.448Z,5.94
2022-12-05T15:43:30.081Z,5.93
2022-12-05T15:46:24.219Z,5.93
2022-12-05T15:48:55.308Z,5.86
2022-12-05T15:51:31.894Z,5.84
2022-12-05T15:54:11.901Z,5.88
2022-12-05T15:56:48.287Z,5.89
2022-12-05T15:59:20.075Z,5.89
2022-12-05T16:01:52.488Z,5.91
2022-12-05T16:04:29.931Z,5.91
2022-12-05T16:07:05.149Z,5.95
2022-12-05T16:09:35.131Z,5.95
2022-12-05T16:12:16.383Z,5.93
2022-12-05T16:15:02.012Z,5.93
2022-12-05T16:17:39.286Z,5.93
2022-12-05T16:20:33.179Z,5.96
2022-12-05T16:23:04.381Z,5.96
2022-12-05T16:25:34.935Z,5.98
2022-12-05T16:28:17.664Z,5.98
2022-12-05T16:31:01.424Z,5.97
2022-12-05T16:33:31.723Z,5.96
2022-12-05T16:36:14.163Z,5.95
2022-12-05T16:38:45.846Z,5.97
2022-12-05T16:41:17.700Z,5.97
2022-12-05T16:43:47.761Z,5.98
2022-12-05T16:46:47.142Z,5.99
2022-12-05T16:49:22.198Z,5.98
2022-12-05T16:52:01.112Z,5.99
2022-12-05T16:54:31.844Z,6.00
2022-12-05T16:57:01.395Z,6.02
2022-12-05T16:59:38.053Z,6.01
2022-12-05T17:02:12.611Z,6.00
2022-12-05T17:04:41.461Z,6.01
2022-12-05T17:07:10.238Z,6.02
2022-12-05T17:09:38.904Z,6.01
2022-12-05T17:12:14.631Z,6.01
2022-12-05T17:14:44.816Z,6.03
2022-12-05T17:17:18.580Z,6.02
2022-12-05T17:19:47.654Z,6.01
2022-12-05T17:22:16.737Z,6.02
2022-12-05T17:24:46.802Z,6.02
2022-12-05T17:27:16.730Z,6.03
2022-12-05T17:29:47.446Z,6.03
2022-12-05T17:32:18.194Z,6.03
2022-12-05T17:34:48.514Z,6.03
2022-12-05T17:37:16.498Z,6.03
2022-12-05T17:39:45.278Z,6.03
2022-12-05T17:42:15.783Z,6.02
2022-12-05T17:44:48.944Z,6.00
2022-12-05T17:47:18.794Z,5.99
2022-12-05T17:49:48.838Z,6.01
2022-12-05T17:52:22.085Z,6.03
2022-12-05T17:54:51.634Z,6.03
2022-12-05T17:57:20.420Z,6.04
2022-12-05T17:59:50.777Z,5.99
2022-12-05T18:02:21.063Z,6.00
2022-12-05T18:04:51.901Z,6.01
2022-12-05T18:07:22.268Z,6.03
2022-12-05T18:09:50.726Z,6.03
2022-12-05T18:12:22.221Z,6.02
2022-12-05T18:14:51.802Z,5.99
2022-12-05T18:17:23.234Z,6.01
2022-12-05T18:19:51.818Z,6.01
2022-12-05T18:22:21.876Z,6.01
2022-12-05T18:24:51.284Z,5.98
2022-12-05T18:27:20.819Z,5.95
2022-12-05T18:29:51.914Z,5.96
2022-12-05T18:32:21.005Z,5.97
2022-12-05T18:34:49.102Z,5.94
2022-12-05T18:37:18.475Z,5.87
2022-12-05T18:39:48.665Z,5.87
2022-12-05T18:42:16.566Z,5.89
2022-12-05T18:44:49.006Z,5.85
2022-12-05T18:47:20.276Z,5.84
2022-12-05T18:49:48.803Z,5.81
2022-12-05T18:52:19.299Z,5.79
2022-12-05T18:55:03.111Z,5.75
2022-12-05T18:57:42.038Z,5.77
2022-12-05T19:00:12.886Z,5.77
2022-12-05T19:02:43.926Z,5.76
2022-12-05T19:05:17.062Z,5.79
2022-12-05T19:07:48.764Z,5.81
2022-12-05T19:10:17.235Z,5.80
2022-12-05T19:12:45.327Z,5.77
2022-12-05T19:15:16.486Z,5.76
2022-12-05T19:17:46.915Z,5.84
2022-12-05T19:20:15.126Z,5.84
2022-12-05T19:22:43.715Z,5.85
2022-12-05T19:25:11.775Z,5.83
2022-12-05T19:27:39.842Z,5.80
2022-12-05T19:30:11.524Z,5.84
2022-12-05T19:32:40.791Z,5.84
2022-12-05T19:35:10.869Z,5.81
2022-12-05T19:37:45.162Z,5.80
2022-12-05T19:40:15.408Z,5.74
2022-12-05T19:42:46.219Z,5.76
2022-12-05T19:45:18.205Z,5.73
2022-12-05T19:47:46.774Z,5.70
2022-12-05T19:50:16.247Z,5.76
2022-12-05T19:52:49.542Z,5.79
2022-12-05T19:55:18.806Z,5.81
2022-12-05T19:57:48.652Z,5.83
2022-12-05T20:00:19.768Z,5.81
2022-12-05T20:02:50.476Z,5.73
2022-12-05T20:05:21.675Z,5.69
2022-12-05T20:07:53.346Z,5.74
2022-12-05T20:10:22.751Z,5.73
2022-12-05T20:12:51.039Z,5.69
2022-12-05T20:15:19.858Z,5.66
2022-12-05T20:17:53.305Z,5.61
2022-12-05T20:20:22.893Z,5.64
2022-12-05T20:22:52.067Z,5.62
2022-12-05T20:25:20.017Z,5.59
2022-12-05T20:27:48.519Z,5.62
2022-12-05T20:30:19.364Z,5.65
2022-12-05T20:32:47.306Z,5.62
2022-12-05T20:35:22.553Z,5.62
2022-12-05T20:37:54.426Z,5.62
2022-12-05T20:40:22.453Z,5.67
2022-12-05T20:42:50.708Z,5.64
2022-12-05T20:45:22.685Z,5.62
2022-12-05T20:47:52.239Z,5.64
2022-12-05T20:50:21.008Z,5.60
2022-12-05T20:52:49.134Z,5.63
2022-12-05T20:55:18.972Z,5.73
2022-12-05T20:57:48.360Z,5.69
2022-12-05T21:00:17.254Z,5.70
2022-12-05T21:02:49.407Z,5.68
2022-12-05T21:05:20.055Z,5.64
2022-12-05T21:07:48.463Z,5.62
2022-12-05T21:10:19.078Z,5.62
2022-12-05T21:12:47.246Z,5.60
2022-12-05T21:15:15.413Z,5.57
2022-12-05T21:17:45.694Z,5.57
2022-12-05T21:20:16.565Z,5.52
2022-12-05T21:22:44.574Z,5.55
2022-12-05T21:25:12.678Z,5.55
2022-12-05T21:27:41.886Z,5.50
2022-12-05T21:30:11.447Z,5.51
2022-12-05T21:32:41.960Z,5.47
2022-12-05T21:35:13.359Z,5.44
2022-12-05T21:37:41.347Z,5.47
2022-12-05T21:40:15.048Z,5.39
2022-12-05T21:42:46.972Z,5.45
2022-12-05T21:45:15.626Z,5.46
2022-12-05T21:47:47.999Z,5.46
2022-12-05T21:50:16.799Z,5.45
2022-12-05T21:52:45.571Z,5.41
2022-12-05T21:55:18.086Z,5.43
2022-12-05T21:57:48.521Z,5.49
2022-12-05T22:00:17.605Z,5.47
2022-12-05T22:02:50.094Z,5.45
2022-12-05T22:05:18.502Z,5.50
2022-12-05T22:07:47.191Z,5.46
2022-12-05T22:10:15.960Z,5.47
2022-12-05T22:12:44.253Z,5.45
2022-12-05T22:15:14.874Z,5.49
2022-12-05T22:17:44.070Z,5.52
2022-12-05T22:20:13.075Z,5.46
2022-12-05T22:22:41.042Z,5.50
2022-12-05T22:25:12.163Z,5.50
2022-12-05T22:27:40.617Z,5.54
2022-12-05T22:30:11.931Z,5.52
2022-12-05T22:32:43.238Z,5.54
2022-12-05T22:35:11.385Z,5.56
2022-12-05T22:37:42.465Z,5.51
2022-12-05T22:40:11.906Z,5.52
2022-12-05T22:42:46.852Z,5.48
2022-12-05T22:45:16.742Z,5.49
2022-12-05T22:47:46.341Z,5.52
2022-12-05T22:50:14.503Z,5.50
2022-12-05T22:52:57.429Z,5.42
2022-12-05T22:55:30.352Z,5.47
2022-12-05T22:58:05.277Z,5.52
2022-12-05T23:00:35.113Z,5.47
2022-12-05T23:03:24.444Z,5.45
2022-12-05T23:06:35.631Z,5.47
2022-12-05T23:09:05.997Z,5.46
2022-12-05T23:11:43.770Z,5.47
2022-12-05T23:14:42.895Z,5.50
2022-12-05T23:18:18.926Z,5.40
2022-12-05T23:24:23.716Z,5.48
2022-12-05T23:27:14.797Z,5.43
2022-12-05T23:33:26.644Z,5.46
2022-12-05T23:36:01.749Z,5.49
2022-12-05T23:38:44.231Z,5.61
2022-12-05T23:41:21.153Z,5.52
2022-12-05T23:44:00.770Z,5.53
2022-12-05T23:46:35.910Z,5.49
2022-12-05T23:49:10.778Z,5.49
2022-12-05T23:51:44.768Z,5.47
2022-12-05T23:54:38.377Z,5.42
2022-12-05T23:57:13.301Z,5.45
2022-12-05T23:59:53.470Z,5.48
